createdAt,value
2023-05-21T00:01:21.682Z,16.90
2023-05-21T00:03:50.112Z,16.03
2023-05-21T00:06:20.885Z,16.00
2023-05-21T00:08:50.327Z,16.07
2023-05-21T00:11:18.264Z,16.87
2023-05-21T00:13:46.164Z,15.57
2023-05-21T00:16:14.057Z,16.63
2023-05-21T00:18:42.047Z,13.23
2023-05-21T00:21:09.963Z,15.47
2023-05-21T00:23:39.767Z,14.43
2023-05-21T00:26:09.052Z,15.03
2023-05-21T00:28:36.999Z,15.70
2023-05-21T00:31:04.916Z,14.83
2023-05-21T00:33:32.848Z,13.90
2023-05-21T00:36:02.059Z,17.83
2023-05-21T00:38:32.913Z,16.97
2023-05-21T00:41:02.373Z,12.77
2023-05-21T00:43:32.650Z,14.20
2023-05-21T00:46:01.041Z,16.93
2023-05-21T00:48:29.027Z,13.63
2023-05-21T00:50:57.089Z,16.80
2023-05-21T00:53:25.123Z,14.27
2023-05-21T00:55:53.208Z,14.67
2023-05-21T00:58:21.256Z,16.23
2023-05-21T01:00:50.687Z,14.83
2023-05-21T01:03:19.275Z,13.87
2023-05-21T01:05:48.878Z,14.03
2023-05-21T01:08:18.099Z,15.00
2023-05-21T01:10:46.045Z,13.37
2023-05-21T01:13:15.015Z,13.70
2023-05-21T01:15:44.183Z,15.17
2023-05-21T01:18:16.111Z,13.93
2023-05-21T01:20:48.272Z,14.10
2023-05-21T01:23:18.489Z,14.50
2023-05-21T01:25:46.820Z,12.50
2023-05-21T01:28:15.518Z,13.93
2023-05-21T01:30:44.974Z,12.77
2023-05-21T01:33:20.304Z,14.80
2023-05-21T01:35:52.174Z,11.53
2023-05-21T01:38:26.928Z,12.37
2023-05-21T01:40:58.866Z,13.00
2023-05-21T01:43:30.524Z,13.50
2023-05-21T01:45:59.995Z,12.57
2023-05-21T01:48:29.860Z,13.53
2023-05-21T01:51:01.426Z,13.10
2023-05-21T01:53:30.907Z,13.53
2023-05-21T01:55:59.317Z,12.47
2023-05-21T01:58:27.327Z,13.67
2023-05-21T02:00:55.524Z,14.07
2023-05-21T02:03:26.979Z,13.17
2023-05-21T02:05:55.773Z,14.67
2023-05-21T02:08:23.844Z,11.97
2023-05-21T02:10:53.174Z,11.10
2023-05-21T02:13:25.030Z,11.80
2023-05-21T02:15:55.369Z,12.60
2023-05-21T02:18:23.419Z,12.27
2023-05-21T02:20:51.360Z,12.17
2023-05-21T02:23:19.320Z,13.27
2023-05-21T02:25:47.236Z,13.73
2023-05-21T02:28:16.505Z,14.77
2023-05-21T02:30:44.481Z,14.13
2023-05-21T02:33:14.398Z,11.83
2023-05-21T02:35:43.890Z,11.97
2023-05-21T02:38:13.635Z,12.57
2023-05-21T02:40:41.649Z,12.30
2023-05-21T02:43:09.606Z,12.90
2023-05-21T02:45:39.146Z,14.00
2023-05-21T02:48:07.554Z,15.30
2023-05-21T02:50:35.555Z,13.63
2023-05-21T02:53:03.462Z,12.87
2023-05-21T02:55:31.377Z,14.80
2023-05-21T02:57:59.359Z,12.70
2023-05-21T03:00:27.363Z,13.83
2023-05-21T03:02:56.725Z,13.53
2023-05-21T03:05:25.116Z,12.97
2023-05-21T03:07:53.406Z,12.47
2023-05-21T03:10:21.341Z,11.97
2023-05-21T03:12:49.276Z,14.10
2023-05-21T03:15:18.180Z,12.13
2023-05-21T03:17:46.092Z,13.90
2023-05-21T03:20:17.151Z,13.43
2023-05-21T03:22:45.517Z,14.07
2023-05-21T03:25:13.685Z,13.47
2023-05-21T03:27:41.642Z,12.60
2023-05-21T03:30:10.518Z,13.80
2023-05-21T03:32:38.766Z,15.57
2023-05-21T03:35:07.464Z,18.10
2023-05-21T03:37:36.702Z,14.50
2023-05-21T03:40:05.573Z,14.47
2023-05-21T03:42:33.424Z,14.17
2023-05-21T03:45:01.274Z,14.90
2023-05-21T03:47:29.195Z,14.20
2023-05-21T03:49:57.068Z,14.00
2023-05-21T03:52:24.977Z,12.87
2023-05-21T03:54:54.183Z,15.87
2023-05-21T03:57:22.067Z,13.43
2023-05-21T03:59:49.909Z,17.47
2023-05-21T04:02:17.844Z,15.10
2023-05-21T04:04:46.628Z,14.17
2023-05-21T04:07:15.469Z,16.77
2023-05-21T04:09:43.412Z,14.90
2023-05-21T04:12:12.749Z,13.03
2023-05-21T04:14:40.825Z,13.67
2023-05-21T04:17:09.058Z,13.97
2023-05-21T04:19:37.036Z,13.50
2023-05-21T04:22:05.231Z,13.70
2023-05-21T04:24:33.215Z,15.27
2023-05-21T04:27:01.472Z,14.37
2023-05-21T04:29:30.927Z,13.70
2023-05-21T04:31:58.761Z,13.23
2023-05-21T04:34:26.647Z,13.07
2023-05-21T04:36:54.493Z,14.43
2023-05-21T04:39:22.354Z,13.57
2023-05-21T04:41:50.788Z,13.20
2023-05-21T04:44:18.657Z,11.90
2023-05-21T04:46:48.979Z,27.40
2023-05-21T04:49:16.913Z,13.00
2023-05-21T04:51:44.752Z,13.30
2023-05-21T04:54:12.619Z,13.37
2023-05-21T04:56:40.586Z,13.90
2023-05-21T04:59:08.446Z,12.33
2023-05-21T05:01:38.544Z,16.47
2023-05-21T05:04:08.050Z,13.77
2023-05-21T05:06:36.056Z,13.80
2023-05-21T05:09:04.824Z,14.47
2023-05-21T05:11:32.860Z,15.50
2023-05-21T05:14:00.846Z,14.27
2023-05-21T05:16:29.742Z,13.20
2023-05-21T05:18:57.813Z,14.67
2023-05-21T05:21:27.063Z,14.63
2023-05-21T05:23:55.011Z,13.20
2023-05-21T05:26:23.886Z,12.43
2023-05-21T05:28:51.814Z,12.83
2023-05-21T05:31:19.825Z,15.23
2023-05-21T05:33:48.008Z,11.97
2023-05-21T05:36:16.484Z,18.13
2023-05-21T05:38:45.687Z,14.23
2023-05-21T05:41:13.682Z,13.30
2023-05-21T05:43:41.532Z,14.70
2023-05-21T05:46:09.437Z,13.53
2023-05-21T05:48:37.370Z,14.13
2023-05-21T05:51:06.096Z,15.23
2023-05-21T05:53:34.005Z,13.23
2023-05-21T05:56:03.207Z,12.43
2023-05-21T05:58:31.183Z,13.40
2023-05-21T06:00:59.089Z,13.57
2023-05-21T06:03:29.243Z,14.13
2023-05-21T06:05:57.215Z,13.37
2023-05-21T06:08:25.318Z,13.97
2023-05-21T06:10:53.172Z,14.27
2023-05-21T06:13:22.406Z,17.33
2023-05-21T06:15:50.473Z,13.93
2023-05-21T06:18:18.475Z,14.10
2023-05-21T06:20:46.332Z,13.63
2023-05-21T06:23:14.210Z,13.73
2023-05-21T06:25:42.172Z,17.53
2023-05-21T06:28:10.057Z,12.03
2023-05-21T06:30:39.400Z,12.63
2023-05-21T06:33:07.627Z,13.57
2023-05-21T06:35:37.335Z,12.97
2023-05-21T06:38:05.581Z,13.67
2023-05-21T06:40:33.443Z,14.03
2023-05-21T06:43:01.328Z,12.20
2023-05-21T06:45:29.291Z,13.90
2023-05-21T06:47:58.603Z,12.47
2023-05-21T06:50:26.526Z,13.07
2023-05-21T06:52:54.390Z,12.73
2023-05-21T06:55:22.401Z,12.53
2023-05-21T06:57:50.328Z,14.30
2023-05-21T07:00:18.594Z,13.20
2023-05-21T07:02:46.635Z,12.90
2023-05-21T07:05:16.159Z,12.10
2023-05-21T07:07:44.296Z,12.30
2023-05-21T07:10:12.348Z,12.73
2023-05-21T07:12:40.783Z,11.93
2023-05-21T07:15:10.108Z,12.70
2023-05-21T07:17:38.464Z,12.20
2023-05-21T07:20:07.754Z,12.73
2023-05-21T07:22:39.373Z,12.93
2023-05-21T07:25:08.329Z,12.27
2023-05-21T07:27:36.588Z,13.33
2023-05-21T07:30:05.052Z,12.27
2023-05-21T07:32:33.009Z,14.13
2023-05-21T07:35:02.926Z,14.47
2023-05-21T07:37:30.921Z,13.33
2023-05-21T07:40:00.403Z,13.23
2023-05-21T07:42:28.554Z,12.37
2023-05-21T07:44:56.455Z,14.10
2023-05-21T07:47:24.506Z,10.83
2023-05-21T07:49:52.416Z,13.30
2023-05-21T07:52:20.389Z,14.10
2023-05-21T07:54:48.267Z,13.47
2023-05-21T07:57:17.523Z,12.47
2023-05-21T07:59:45.658Z,13.80
2023-05-21T08:02:13.496Z,12.97
2023-05-21T08:04:42.498Z,12.10
2023-05-21T08:07:10.721Z,13.23
2023-05-21T08:09:38.680Z,14.20
2023-05-21T08:12:07.285Z,11.90
2023-05-21T08:14:36.588Z,14.03
2023-05-21T08:17:04.654Z,13.10
2023-05-21T08:19:32.779Z,12.70
2023-05-21T08:22:00.720Z,12.53
2023-05-21T08:24:28.594Z,11.83
2023-05-21T08:26:56.444Z,13.13
2023-05-21T08:29:24.303Z,11.67
2023-05-21T08:31:53.531Z,12.07
2023-05-21T08:34:21.402Z,11.70
2023-05-21T08:36:49.938Z,12.13
2023-05-21T08:39:17.807Z,12.57
2023-05-21T08:41:49.704Z,12.20
2023-05-21T08:44:21.673Z,11.43
2023-05-21T08:46:51.892Z,13.67
2023-05-21T08:49:27.012Z,11.77
2023-05-21T08:51:56.203Z,11.57
2023-05-21T08:54:24.164Z,11.67
2023-05-21T08:56:53.630Z,12.83
2023-05-21T08:59:23.188Z,11.93
2023-05-21T09:01:52.364Z,11.87
2023-05-21T09:04:22.333Z,11.87
2023-05-21T09:06:51.055Z,11.03
2023-05-21T09:09:27.077Z,12.93
2023-05-21T09:11:55.328Z,11.33
2023-05-21T09:14:24.936Z,13.97
2023-05-21T09:16:52.859Z,10.90
2023-05-21T09:19:23.053Z,10.13
2023-05-21T09:21:52.820Z,11.03
2023-05-21T09:24:23.560Z,10.90
2023-05-21T09:26:52.471Z,10.73
2023-05-21T09:29:20.405Z,15.73
2023-05-21T09:31:48.315Z,11.33
2023-05-21T09:34:16.383Z,12.57
2023-05-21T09:36:46.004Z,11.80
2023-05-21T09:39:28.280Z,11.00
2023-05-21T09:41:58.085Z,11.20
2023-05-21T09:44:26.021Z,12.60
2023-05-21T09:46:58.661Z,12.43
2023-05-21T09:49:28.158Z,12.53
2023-05-21T09:51:58.795Z,12.00
2023-05-21T09:54:31.660Z,10.40
2023-05-21T09:57:01.307Z,11.47
2023-05-21T09:59:37.565Z,11.20
2023-05-21T10:02:17.503Z,10.50
2023-05-21T10:04:48.736Z,9.93
2023-05-21T10:07:21.666Z,11.97
2023-05-21T10:09:49.866Z,11.27
2023-05-21T10:12:19.913Z,10.30
2023-05-21T10:14:52.745Z,10.23
2023-05-21T10:17:21.408Z,11.07
2023-05-21T10:19:51.234Z,11.33
2023-05-21T10:22:20.619Z,14.27
2023-05-21T10:24:49.539Z,10.37
2023-05-21T10:27:18.801Z,10.90
2023-05-21T10:29:47.196Z,9.93
2023-05-21T10:32:16.989Z,11.50
2023-05-21T10:34:45.213Z,9.70
2023-05-21T10:37:14.432Z,11.67
2023-05-21T10:39:45.867Z,11.23
2023-05-21T10:42:22.195Z,10.17
2023-05-21T10:45:10.541Z,9.13
2023-05-21T10:47:59.709Z,9.70
2023-05-21T10:50:47.776Z,10.13
2023-05-21T10:53:24.688Z,11.40
2023-05-21T10:56:06.662Z,13.60
2023-05-21T10:59:04.128Z,12.67
2023-05-21T11:01:35.827Z,10.73
2023-05-21T11:04:05.037Z,10.70
2023-05-21T11:06:33.088Z,10.37
2023-05-21T11:09:03.753Z,10.00
2023-05-21T11:11:43.735Z,9.70
2023-05-21T11:14:34.878Z,9.20
2023-05-21T11:17:04.867Z,10.03
2023-05-21T11:19:37.802Z,11.17
2023-05-21T11:22:22.767Z,8.70
2023-05-21T11:24:51.659Z,9.30
2023-05-21T11:27:37.256Z,9.87
2023-05-21T11:30:08.082Z,8.53
2023-05-21T11:32:39.851Z,9.47
2023-05-21T11:35:08.961Z,8.87
2023-05-21T11:37:40.553Z,9.27
2023-05-21T11:40:26.637Z,10.03
2023-05-21T11:42:57.406Z,10.07
2023-05-21T11:45:31.870Z,10.33
2023-05-21T11:47:59.995Z,9.47
2023-05-21T11:50:30.630Z,9.93
2023-05-21T11:52:59.832Z,9.43
2023-05-21T11:55:28.026Z,8.80
2023-05-21T11:57:57.285Z,8.80
2023-05-21T12:00:25.120Z,10.10
2023-05-21T12:02:55.564Z,10.80
2023-05-21T12:05:24.275Z,13.87
2023-05-21T12:07:52.215Z,9.63
2023-05-21T12:10:23.686Z,8.80
2023-05-21T12:12:56.390Z,8.27
2023-05-21T12:15:27.860Z,7.97
2023-05-21T12:17:56.926Z,8.87
2023-05-21T12:20:27.971Z,9.37
2023-05-21T12:22:57.685Z,8.07
2023-05-21T12:25:25.813Z,12.83
2023-05-21T12:27:57.939Z,8.33
2023-05-21T12:30:27.580Z,7.67
2023-05-21T12:32:59.274Z,8.70
2023-05-21T12:35:27.306Z,8.87
2023-05-21T12:37:55.372Z,8.80
2023-05-21T12:40:23.374Z,9.47
2023-05-21T12:42:52.081Z,9.03
2023-05-21T12:45:22.629Z,9.40
2023-05-21T12:47:56.166Z,8.57
2023-05-21T12:50:24.698Z,8.00
2023-05-21T12:52:56.203Z,7.03
2023-05-21T12:55:26.078Z,6.47
2023-05-21T12:58:03.642Z,8.27
2023-05-21T13:00:33.001Z,9.30
2023-05-21T13:03:04.444Z,8.90
2023-05-21T13:05:32.827Z,7.80
2023-05-21T13:08:00.713Z,8.50
2023-05-21T13:10:28.651Z,8.63
2023-05-21T13:12:56.581Z,8.20
2023-05-21T13:15:24.470Z,8.60
2023-05-21T13:17:54.335Z,9.20
2023-05-21T13:20:27.356Z,8.43
2023-05-21T13:22:55.753Z,9.33
2023-05-21T13:25:28.641Z,9.53
2023-05-21T13:27:57.790Z,9.20
2023-05-21T13:30:25.700Z,8.50
2023-05-21T13:32:53.803Z,7.40
2023-05-21T13:35:21.888Z,7.50
2023-05-21T13:37:51.347Z,7.90
2023-05-21T13:40:19.258Z,8.07
2023-05-21T13:42:48.906Z,8.50
2023-05-21T13:45:18.004Z,6.90
2023-05-21T13:47:47.153Z,6.30
2023-05-21T13:50:15.290Z,9.17
2023-05-21T13:52:43.192Z,7.87
2023-05-21T13:55:12.870Z,7.60
2023-05-21T13:57:40.837Z,8.13
2023-05-21T14:00:12.570Z,8.97
2023-05-21T14:02:41.834Z,9.13
2023-05-21T14:05:10.813Z,8.30
2023-05-21T14:07:39.855Z,8.73
2023-05-21T14:10:09.077Z,8.70
2023-05-21T14:12:38.759Z,7.77
2023-05-21T14:15:07.924Z,9.67
2023-05-21T14:17:35.925Z,10.13
2023-05-21T14:20:03.968Z,9.23
2023-05-21T14:22:31.826Z,9.40
2023-05-21T14:24:59.756Z,10.23
2023-05-21T14:27:27.629Z,10.50
2023-05-21T14:29:56.836Z,9.37
2023-05-21T14:32:24.853Z,10.93
2023-05-21T14:34:52.750Z,9.53
2023-05-21T14:37:21.107Z,10.10
2023-05-21T14:39:49.095Z,8.63
2023-05-21T14:42:17.040Z,8.37
2023-05-21T14:44:45.193Z,8.67
2023-05-21T14:47:14.388Z,9.97
2023-05-21T14:49:42.248Z,9.53
2023-05-21T14:52:10.094Z,10.03
2023-05-21T14:54:38.565Z,8.83
2023-05-21T14:57:06.711Z,9.10
2023-05-21T14:59:34.586Z,9.23
2023-05-21T15:02:02.710Z,9.70
2023-05-21T15:04:32.188Z,14.80
2023-05-21T15:07:00.063Z,9.63
2023-05-21T15:09:27.944Z,9.67
2023-05-21T15:11:55.798Z,9.23
2023-05-21T15:14:23.674Z,8.77
2023-05-21T15:16:51.663Z,9.50
2023-05-21T15:19:19.629Z,10.67
2023-05-21T15:21:51.639Z,10.13
2023-05-21T15:24:19.580Z,10.03
2023-05-21T15:26:49.123Z,9.43
2023-05-21T15:29:17.023Z,9.50
2023-05-21T15:31:44.940Z,9.70
2023-05-21T15:34:13.696Z,8.43
2023-05-21T15:36:41.855Z,8.97
2023-05-21T15:39:11.173Z,12.30
2023-05-21T15:41:39.082Z,8.97
2023-05-21T15:44:07.112Z,10.20
2023-05-21T15:46:35.064Z,9.70
2023-05-21T15:49:02.947Z,11.50
2023-05-21T15:51:30.891Z,8.97
2023-05-21T15:53:58.800Z,8.90
2023-05-21T15:56:28.033Z,9.57
2023-05-21T15:58:58.516Z,7.80
2023-05-21T16:01:27.292Z,8.23
2023-05-21T16:03:55.605Z,9.03
2023-05-21T16:06:23.581Z,9.90
2023-05-21T16:08:51.465Z,8.40
2023-05-21T16:11:19.382Z,9.07
2023-05-21T16:13:48.629Z,8.63
2023-05-21T16:16:16.615Z,8.70
2023-05-21T16:18:44.614Z,8.73
2023-05-21T16:21:12.606Z,9.90
2023-05-21T16:23:40.862Z,9.00
2023-05-21T16:26:10.144Z,8.47
2023-05-21T16:28:38.699Z,9.03
2023-05-21T16:31:08.627Z,9.27
2023-05-21T16:33:36.579Z,10.00
2023-05-21T16:36:04.666Z,8.87
2023-05-21T16:38:32.671Z,8.87
2023-05-21T16:41:00.604Z,8.37
2023-05-21T16:43:28.542Z,8.43
2023-05-21T16:45:56.406Z,9.17
2023-05-21T16:48:25.692Z,8.73
2023-05-21T16:50:53.862Z,9.00
2023-05-21T16:53:22.032Z,12.00
2023-05-21T16:55:50.086Z,8.17
2023-05-21T16:58:19.038Z,8.70
2023-05-21T17:00:47.481Z,9.63
2023-05-21T17:03:16.076Z,9.57
2023-05-21T17:05:45.587Z,8.87
2023-05-21T17:08:14.423Z,8.00
2023-05-21T17:10:42.429Z,8.47
2023-05-21T17:13:21.289Z,9.10
2023-05-21T17:15:51.068Z,9.10
2023-05-21T17:18:19.442Z,9.87
2023-05-21T17:20:49.120Z,8.53
2023-05-21T17:23:17.490Z,8.73
2023-05-21T17:25:45.659Z,8.07
2023-05-21T17:28:13.878Z,8.67
2023-05-21T17:30:42.505Z,9.27
2023-05-21T17:33:10.799Z,9.40
2023-05-21T17:35:39.264Z,10.03
2023-05-21T17:38:08.874Z,8.53
2023-05-21T17:40:37.127Z,8.13
2023-05-21T17:43:07.167Z,9.13
2023-05-21T17:45:35.675Z,9.17
2023-05-21T17:48:03.960Z,8.53
2023-05-21T17:50:32.056Z,10.13
2023-05-21T17:53:00.058Z,8.57
2023-05-21T17:55:29.276Z,11.27
2023-05-21T17:57:57.248Z,9.90
2023-05-21T18:00:25.208Z,7.60
2023-05-21T18:02:53.125Z,9.43
2023-05-21T18:05:21.741Z,8.07
2023-05-21T18:07:49.796Z,7.77
2023-05-21T18:10:17.897Z,7.77
2023-05-21T18:12:47.222Z,8.23
2023-05-21T18:15:15.644Z,8.20
2023-05-21T18:17:43.693Z,8.07
2023-05-21T18:20:13.199Z,8.27
2023-05-21T18:22:41.298Z,7.80
2023-05-21T18:25:10.448Z,8.43
2023-05-21T18:27:38.334Z,8.23
2023-05-21T18:30:09.342Z,7.73
2023-05-21T18:32:39.403Z,8.43
2023-05-21T18:35:10.991Z,7.77
2023-05-21T18:37:41.567Z,7.80
2023-05-21T18:40:10.723Z,9.07
2023-05-21T18:42:38.644Z,9.17
2023-05-21T18:45:12.954Z,9.00
2023-05-21T18:47:42.886Z,11.30
2023-05-21T18:50:13.667Z,9.40
2023-05-21T18:52:41.532Z,8.40
2023-05-21T18:55:10.403Z,9.43
2023-05-21T18:57:38.377Z,8.50
2023-05-21T19:00:09.499Z,8.63
2023-05-21T19:02:38.797Z,9.43
2023-05-21T19:05:07.997Z,8.40
2023-05-21T19:07:36.225Z,9.20
2023-05-21T19:10:04.345Z,8.97
2023-05-21T19:12:32.367Z,8.90
2023-05-21T19:15:00.236Z,8.83
2023-05-21T19:17:28.114Z,8.33
2023-05-21T19:19:57.474Z,8.50
2023-05-21T19:22:25.960Z,8.67
2023-05-21T19:24:54.308Z,9.43
2023-05-21T19:27:22.484Z,9.87
2023-05-21T19:29:50.443Z,8.77
2023-05-21T19:32:18.387Z,9.00
2023-05-21T19:34:46.610Z,8.80
2023-05-21T19:37:16.758Z,9.17
2023-05-21T19:39:49.492Z,11.43
2023-05-21T19:42:21.414Z,9.37
2023-05-21T19:44:49.479Z,8.80
2023-05-21T19:47:17.362Z,9.27
2023-05-21T19:49:45.683Z,9.43
2023-05-21T19:52:15.038Z,8.57
2023-05-21T19:54:42.949Z,9.10
2023-05-21T19:57:12.463Z,8.97
2023-05-21T19:59:40.812Z,8.93
2023-05-21T20:02:15.102Z,9.93
2023-05-21T20:04:42.981Z,8.90
2023-05-21T20:07:11.077Z,9.13
2023-05-21T20:09:41.198Z,9.43
2023-05-21T20:12:09.974Z,8.93
2023-05-21T20:14:37.872Z,8.83
2023-05-21T20:17:07.079Z,8.97
2023-05-21T20:19:37.896Z,11.77
2023-05-21T20:22:06.498Z,9.93
2023-05-21T20:24:34.452Z,9.53
2023-05-21T20:27:03.682Z,9.53
2023-05-21T20:29:31.890Z,9.57
2023-05-21T20:31:59.899Z,8.53
2023-05-21T20:34:29.562Z,9.20
2023-05-21T20:36:58.258Z,10.60
2023-05-21T20:39:27.290Z,9.90
2023-05-21T20:41:55.997Z,10.40
2023-05-21T20:44:27.496Z,9.47
2023-05-21T20:46:55.433Z,10.63
2023-05-21T20:49:24.852Z,11.47
2023-05-21T20:51:52.948Z,11.43
2023-05-21T20:54:22.144Z,11.27
2023-05-21T20:56:50.725Z,11.30
2023-05-21T20:59:18.651Z,11.37
2023-05-21T21:01:48.014Z,10.93
2023-05-21T21:04:16.188Z,11.40
2023-05-21T21:06:46.575Z,12.90
2023-05-21T21:09:14.479Z,9.97
2023-05-21T21:11:42.387Z,10.33
2023-05-21T21:14:10.484Z,11.70
2023-05-21T21:16:38.548Z,9.80
2023-05-21T21:19:07.893Z,10.83
2023-05-21T21:21:36.016Z,12.07
2023-05-21T21:24:03.994Z,11.37
2023-05-21T21:26:31.873Z,11.17
2023-05-21T21:28:59.737Z,10.43
2023-05-21T21:31:27.725Z,10.80
2023-05-21T21:33:55.974Z,11.40
2023-05-21T21:36:25.316Z,9.87
2023-05-21T21:38:53.225Z,9.13
2023-05-21T21:41:21.878Z,11.93
2023-05-21T21:43:49.778Z,11.53
2023-05-21T21:46:17.746Z,10.77
2023-05-21T21:48:45.821Z,10.73
2023-05-21T21:51:15.560Z,10.90
2023-05-21T21:53:44.793Z,11.57
2023-05-21T21:56:12.687Z,10.40
2023-05-21T21:58:40.582Z,10.20
2023-05-21T22:01:08.553Z,12.60
2023-05-21T22:03:37.066Z,10.00
2023-05-21T22:06:05.302Z,11.80
2023-05-21T22:08:33.180Z,11.97
2023-05-21T22:11:03.135Z,11.77
2023-05-21T22:13:31.068Z,11.20
2023-05-21T22:15:59.014Z,10.97
2023-05-21T22:18:39.553Z,10.70
2023-05-21T22:21:09.792Z,12.70
2023-05-21T22:23:38.769Z,9.57
2023-05-21T22:26:08.347Z,9.43
2023-05-21T22:28:36.404Z,9.53
2023-05-21T22:31:04.537Z,9.50
2023-05-21T22:33:32.621Z,11.40
2023-05-21T22:36:00.546Z,9.47
2023-05-21T22:38:28.584Z,11.13
2023-05-21T22:40:56.572Z,11.10
2023-05-21T22:43:27.064Z,10.10
2023-05-21T22:45:55.017Z,10.23
2023-05-21T22:48:22.936Z,10.90
2023-05-21T22:50:53.390Z,10.00
2023-05-21T22:53:21.547Z,11.93
2023-05-21T22:55:49.487Z,11.13
2023-05-21T22:58:17.473Z,10.50
2023-05-21T23:00:47.501Z,11.40
2023-05-21T23:03:16.362Z,11.00
2023-05-21T23:05:45.187Z,10.53
2023-05-21T23:08:13.301Z,11.33
2023-05-21T23:10:41.558Z,12.60
2023-05-21T23:13:09.610Z,11.43
2023-05-21T23:15:39.008Z,10.70
2023-05-21T23:18:08.893Z,11.23
2023-05-21T23:20:39.475Z,12.50
2023-05-21T23:23:07.618Z,10.77
2023-05-21T23:25:35.978Z,10.63
2023-05-21T23:28:04.432Z,12.40
2023-05-21T23:30:32.458Z,10.23
2023-05-21T23:33:00.596Z,11.23
2023-05-21T23:35:30.163Z,9.40
2023-05-21T23:37:58.145Z,10.17
2023-05-21T23:40:26.130Z,10.53
2023-05-21T23:42:54.015Z,10.40
2023-05-21T23:45:21.995Z,10.27
2023-05-21T23:47:50.124Z,9.87
2023-05-21T23:50:18.235Z,10.83
2023-05-21T23:52:47.481Z,10.47
2023-05-21T23:55:15.660Z,9.80
2023-05-21T23:57:43.532Z,11.03
